Latest Coastal Weather Observations for Albion Park

IDN60701

Issued at 9:25 pm EST Thursday 31 July 2014 (issued every 10 minutes, with the page automatically refreshed every 10 minutes)

About coastal observations | Map of coastal stations | Coastal observations for NSW | Marine services | Other Formats
Station Details ID: 068241 Name: WOLLONGONG AIRPORT Lat: -34.56 Lon: 150.79 Height: 8.0 m
Data from the previous 72 hours. | See also: Recent months at Albion Park
Date/Time
EST
Temp

°C
Wind Pressure Rain
since 9am
mm
Weather Cloud Vis
km
Sea
Height
m
Swell
Dir
 
Speed
knots
Gust
knots
hPa Trend Height
m
Period
s
Dir
31/09:00pm 19.4 N 10 14 1004.3 - 0.0 - - 10 - - - -
31/08:30pm 19.9 N 12 20 1004.3 - 0.0 - - 10 - - - -
31/08:00pm 20.0 N 11 17 1004.3 - 0.0 - - 10 - - - -
31/07:30pm 20.1 N 10 15 1004.5 - 0.0 - - 10 - - - -
31/07:00pm 20.4 N 9 15 1004.5 - 0.0 - - 10 - - - -
31/06:30pm 20.9 N 11 19 1004.2 - 0.0 - - 10 - - - -
31/06:00pm 21.7 N 9 15 1004.3 - 0.0 - - 10 - - - -
31/05:35pm 22.5 N 15 27 1004.2 - 0.0 - - 10 - - - -
31/05:30pm 22.4 N 11 27 1004.1 - 0.0 - - 10 - - - -
31/05:00pm 22.7 N 13 27 1004.1 - 0.0 - - 10 - - - -
31/04:56pm 23.1 N 15 27 1004.0 - 0.0 - - 10 - - - -
31/04:30pm 23.8 N 14 20 1004.4 - 0.0 - - 10 - - - -
31/04:01pm 24.5 NW 17 27 1004.6 - 0.0 - - 10 - - - -
31/04:00pm 24.5 NW 18 27 1004.4 - 0.0 - - 10 - - - -
31/03:35pm 24.9 NNW 19 29 1004.4 - 0.0 - - 10 - - - -
31/03:30pm 25.0 NNW 20 29 1004.3 - 0.0 - - 10 - - - -
31/03:00pm 25.6 NW 19 32 1004.8 - 0.0 - - 10 - - - -
31/02:30pm 25.6 NW 16 27 1005.2 - 0.0 - - 10 - - - -
31/02:03pm 25.6 NNW 21 31 1005.5 - 0.0 - - 10 - - - -
31/02:00pm 25.7 NNW 24 31 1005.3 - 0.0 - - 10 - - - -
31/01:59pm 25.6 NNW 25 31 1005.2 - 0.0 - - 10 - - - -
31/01:43pm 25.6 WNW 16 26 1005.9 - 0.0 - - 10 - - - -
31/01:30pm 25.7 WNW 17 26 1006.1 - 0.0 - - 10 - - - -
31/01:00pm 25.4 WNW 19 27 1006.7 - 0.0 - - 10 - - - -
31/12:53pm 25.3 NW 15 25 1006.8 - 0.0 - - 10 - - - -
31/12:30pm 25.1 NW 18 26 1007.5 - 0.0 - - 10 - - - -
31/12:19pm 24.7 NNW 15 17 1007.9 - 0.0 - - 10 - - - -
31/12:06pm 24.4 NNW 15 27 1008.1 - 0.0 - - 10 - - - -
31/12:00pm 24.8 WNW 16 23 1008.4 - 0.0 - - 10 - - - -
31/11:30am 23.5 W 9 17 1009.7 - 0.0 - - 10 - - - -
31/11:00am 22.5 N 11 18 1010.5 - 0.0 - - 10 - - - -
31/10:30am 21.5 N 12 17 1011.2 - 0.0 - - 10 - - - -
31/10:00am 20.9 NNW 11 14 1011.7 - 0.0 - - 10 - - - -
31/09:30am 20.5 NNW 7 11 1012.0 - 0.0 - - 10 - - - -
31/09:00am 20.1 N 9 12 1012.5 - 0.0 - - 10 - - - -
31/08:30am 19.4 NW 6 15 1012.8 - 0.0 - - 10 - - - -
31/08:00am 18.4 NW 6 8 1012.8 - 0.0 - - 10 - - - -
31/07:30am 17.9 NW 13 21 1012.9 - 0.0 - - 10 - - - -
31/07:00am 18.0 WNW 25 37 1012.4 - 0.0 - - 10 - - - -
31/06:32am 18.0 WNW 19 31 1012.0 - 0.0 - - 10 - - - -
31/06:30am 17.8 WNW 18 24 1012.2 - 0.0 - - 10 - - - -
31/06:00am 17.7 W 18 25 1012.2 - 0.0 - - 10 - - - -
31/05:30am 17.6 WNW 18 30 1012.2 - 0.0 - - 10 - - - -
31/05:14am 17.3 WNW 15 25 1012.3 - 0.0 - - 10 - - - -
31/05:00am 17.2 WNW 12 17 1012.5 - 0.0 - - 10 - - - -
31/04:30am 17.9 NW 15 25 1012.2 - 0.0 - - 10 - - - -
31/04:18am 16.6 NW 13 18 1012.1 - 0.0 - - 10 - - - -
31/04:00am 11.5 NW 6 11 1012.6 - 0.0 - - 10 - - - -
31/03:30am 7.5 S 3 6 1012.8 - 0.0 - - 10 - - - -
31/03:00am 5.2 NNE 5 9 1013.3 - 0.0 - - 10 - - - -
31/02:30am 4.2 W 3 7 1013.6 - 0.0 - - 10 - - - -
31/02:00am 5.6 W 2 5 1014.0 - 0.0 - - 10 - - - -
31/01:30am 6.1 CALM 0 0 1014.3 - 0.0 - - 10 - - - -
31/01:00am 6.6 CALM 0 0 1014.7 - 0.0 - - 10 - - - -
31/12:30am 7.3 CALM 0 0 1015.0 - 0.0 - - 10 - - - -
31/12:00am 7.8 W 4 5 1015.3 - 0.0 - - 10 - - - -
 
Date/Time
EST
Temp

°C
Wind Pressure Rain
since 9am
mm
Weather Cloud Vis
km
Sea
Height
m
Swell
Dir
 
Speed
knots
Gust
knots
hPa Trend Height
m
Period
s
Dir
30/11:30pm 7.8 W 3 4 1015.6 - 0.0 - - 10 - - - -
30/11:00pm 8.7 WSW 1 5 1015.9 - 0.0 - - 10 - - - -
30/10:30pm 9.0 WSW 2 4 1016.0 - 0.0 - - 10 - - - -
30/10:00pm 10.8 CALM 0 0 1016.1 - 0.0 - - 10 - - - -
30/09:30pm 11.3 W 3 6 1016.4 - 0.0 - - 10 - - - -
30/09:00pm 13.1 NW 4 5 1016.3 - 0.0 - - 10 - - - -
30/08:30pm 14.7 WNW 3 7 1016.4 - 0.0 - - 10 - - - -
30/08:00pm 15.8 WNW 4 8 1016.4 - 0.0 - - 10 - - - -
30/07:30pm 16.8 NW 7 11 1016.5 - 0.0 - - 10 - - - -
30/07:00pm 17.1 NW 8 11 1016.2 - 0.0 - Partly cloudy 10 - - - -
30/06:30pm 17.2 WNW 8 12 1016.2 - 0.0 - Partly cloudy 10 - - - -
30/06:00pm 18.0 WNW 10 11 1016.0 - 0.0 - Mostly cloudy 10 - - - -
30/05:30pm 17.6 WSW 7 8 1015.6 - 0.0 - - 10 - - - -
30/05:00pm 19.2 WNW 15 22 1015.0 - 0.0 - Partly cloudy 10 - - - -
30/04:30pm 19.9 W 17 26 1014.8 - 0.0 - Partly cloudy 10 - - - -
30/04:02pm 20.1 W 15 25 1014.6 - 0.0 - Partly cloudy 10 - - - -
30/04:00pm 20.2 W 15 22 1014.7 - 0.0 - Partly cloudy 10 - - - -
30/03:30pm 20.6 WNW 19 29 1014.4 - 0.0 - - 10 - - - -
30/03:12pm 21.2 WNW 17 28 1014.4 - 0.0 - - 10 - - - -
30/03:00pm 22.1 WNW 16 24 1014.2 - 0.0 - - 10 - - - -
30/02:30pm 21.8 W 20 30 1014.3 - 0.0 - - - - - - -
30/02:09pm 21.8 WNW 20 31 1014.3 - 0.0 - - - - - - -
30/02:00pm 22.3 WNW 19 27 1014.4 - 0.0 - - - - - - -
30/01:30pm 21.7 W 22 32 1014.5 - 0.0 - - - - - - -
30/01:25pm 22.1 W 18 28 1014.5 - 0.0 - - - - - - -
30/01:00pm 22.2 W 18 26 1014.7 - 0.0 - - - - - - -
30/12:30pm 22.3 W 20 27 1015.0 - 0.0 - - - - - - -
30/12:00pm 21.5 W 22 32 1015.4 - 0.0 - - - - - - -
30/11:32am 20.9 W 16 26 1015.9 - 0.0 - - - - - - -
30/11:30am 21.2 W 18 26 1016.0 - 0.0 - - - - - - -
30/11:00am 21.8 WNW 16 21 1016.3 - 0.0 - - - - - - -
30/10:30am 21.0 WNW 12 20 1016.7 - 0.0 - - - - - - -
30/10:00am 20.3 W 13 21 1016.9 - 0.0 - - - - - - -
30/09:30am 20.0 W 11 21 1017.0 - 0.0 - - - - - - -
30/09:00am 19.1 W 9 14 1017.1 - 0.0 - - - - - - -
30/08:30am 18.4 S 5 8 1016.9 - 0.0 - - 10 - - - -
30/08:00am 17.5 WNW 8 12 1016.7 - 0.0 - - 10 - - - -
30/07:30am 16.4 NW 5 8 1016.4 - 0.0 - - 10 - - - -
30/07:28am 16.2 NW 5 6 1016.3 - 0.0 - - 10 - - - -
30/07:12am 16.5 W 23 34 1015.3 - 0.0 - - 10 - - - -
30/07:00am 16.4 W 26 33 1014.8 - 0.0 - - 10 - - - -
30/06:30am 16.6 W 32 42 1013.9 - 0.0 - - 10 - - - -
30/06:00am 16.5 W 30 40 1013.7 - 0.0 - - 10 - - - -
30/05:30am 16.4 W 31 42 1013.3 - 0.0 - - 10 - - - -
30/05:00am 16.7 W 28 38 1012.9 - 0.0 - - 10 - - - -
30/04:32am 16.6 W 23 37 1012.9 - 0.0 - - 10 - - - -
30/04:30am 16.5 W 23 31 1013.1 - 0.0 - - 10 - - - -
30/04:04am 16.6 W 23 34 1013.2 - 0.0 - - 10 - - - -
30/04:00am 16.5 W 25 32 1013.4 - 0.0 - - 10 - - - -
30/03:47am 16.8 W 25 37 1013.3 - 0.0 - - 10 - - - -
30/03:30am 17.0 W 26 32 1013.2 - 0.0 - - 10 - - - -
30/03:09am 17.0 W 25 35 1013.3 - 0.0 - - 10 - - - -
30/03:00am 17.0 W 24 33 1013.3 - 0.0 - - 10 - - - -
30/02:30am 17.2 W 19 28 1013.9 - 0.0 - - 10 - - - -
30/02:00am 17.5 W 17 27 1014.0 - 0.0 - - 10 - - - -
30/01:53am 17.7 W 15 27 1014.1 - 0.0 - - 10 - - - -
30/01:30am 17.3 W 15 20 1014.3 - 0.0 - - 10 - - - -
30/01:18am 17.4 W 15 22 1014.2 - 0.0 - - 10 - - - -
30/01:00am 14.5 W 4 11 1014.4 - 0.0 - - 10 - - - -
30/12:30am 14.1 W 5 9 1014.7 - 0.0 - - 10 - - - -
30/12:00am 14.4 W 6 13 1014.7 - 0.0 - - 10 - - - -
 
Date/Time
EST
Temp

°C
Wind Pressure Rain
since 9am
mm
Weather Cloud Vis
km
Sea
Height
m
Swell
Dir
 
Speed
knots
Gust
knots
hPa Trend Height
m
Period
s
Dir
29/11:30pm 13.3 SW 2 5 1014.7 - 0.0 - - 10 - - - -
29/11:00pm 15.6 ENE 5 11 1014.6 - 0.0 - - 10 - - - -
29/10:30pm 14.0 SE 3 7 1014.6 - 0.0 - - 10 - - - -
29/10:00pm 13.9 E 4 8 1014.3 - 0.0 - - 10 - - - -
29/09:30pm 13.5 S 2 6 1014.3 - 0.0 - - 10 - - - -
29/09:00pm 14.3 WNW 4 7 1014.2 - 0.0 - - 10 - - - -
29/08:30pm 16.5 N 5 7 1014.4 - 0.0 - - 10 - - - -
29/08:00pm 17.8 N 7 9 1014.4 - 0.0 - - 10 - - - -
29/07:30pm 17.2 NNW 6 9 1014.5 - 0.0 - - 10 - - - -
29/07:00pm 18.0 NW 7 12 1014.5 - 0.0 - - 10 - - - -
29/06:30pm 19.0 NNW 9 13 1014.3 - 0.0 - - 10 - - - -
29/06:00pm 18.4 N 6 11 1014.2 - 0.0 - - 10 - - - -
29/05:30pm 19.3 WNW 12 21 1013.9 - 0.0 - - 10 - - - -
29/05:00pm 19.7 WNW 10 16 1013.5 - 0.0 - - 10 - - - -
29/04:30pm 21.4 NW 9 13 1013.0 - 0.0 - - 10 - - - -
29/04:00pm 22.1 W 13 19 1013.0 - 0.0 - - 10 - - - -
29/03:30pm 22.8 W 15 23 1012.8 - 0.0 - - 10 - - - -
29/03:00pm 23.1 W 20 33 1012.5 - 0.0 - - 10 - - - -
29/02:33pm 23.4 W 17 27 1012.1 - 0.0 - - 10 - - - -
29/02:30pm 23.4 WNW 18 27 1012.0 - 0.0 - - 10 - - - -
29/02:00pm 23.1 WNW 23 33 1012.3 - 0.0 - - 10 - - - -
29/01:42pm 23.8 W 19 29 1012.6 - 0.0 - - 10 - - - -
29/01:30pm 23.5 WNW 20 28 1012.7 - 0.0 - - 10 - - - -
29/01:27pm 23.5 WNW 20 27 1012.6 - 0.0 - - 10 - - - -
29/01:11pm 23.5 W 17 27 1013.0 - 0.0 - - 10 - - - -
29/01:04pm 23.1 W 20 27 1012.9 - 0.0 - - 10 - - - -
29/01:00pm 23.4 WNW 16 27 1013.0 - 0.0 - - 10 - - - -
29/12:46pm 22.7 WNW 20 31 1013.2 - 0.0 - - 10 - - - -
29/12:30pm 22.6 W 19 28 1013.6 - 0.0 - - 10 - - - -
29/12:27pm 22.5 W 17 28 1013.8 - 0.0 - - 10 - - - -
29/12:00pm 21.0 N 9 15 1014.3 - 0.0 - - 10 - - - -
29/11:30am 20.1 N 11 16 1014.7 - 0.0 - - 10 - - - -
29/11:00am 18.1 N 11 15 1015.0 - 0.0 - - 10 - - - -
29/10:30am 17.6 N 10 14 1015.8 - 0.0 - - 10 - - - -
29/10:00am 17.3 N 8 11 1016.5 - 0.0 - - 10 - - - -
29/09:30am 16.1 NNW 7 11 1016.8 - 0.0 - - 10 - - - -
29/09:00am 14.6 NNW 7 9 1016.9 - 0.0 - - 10 - - - -
29/08:30am 14.2 NNW 7 10 1016.9 - 0.0 - - 10 - - - -
29/08:00am 13.3 NNW 6 7 1016.9 - 0.0 - - 10 - - - -
29/07:30am 14.4 WNW 6 8 1016.8 - 0.0 - - 10 - - - -
29/07:00am 14.9 W 7 10 1016.9 - 0.0 - - 10 - - - -
29/06:30am 16.2 W 14 19 1016.3 - 0.0 - - 10 - - - -
29/06:00am 15.6 W 12 15 1016.0 - 0.0 - Mostly cloudy 10 - - - -
29/05:30am 15.9 W 8 13 1016.2 - 0.0 - - 10 - - - -
29/05:00am 13.9 E 7 8 1015.9 - 0.0 - - 10 - - - -
29/04:30am 14.0 NE 7 9 1015.9 - 0.0 - - 10 - - - -
29/04:00am 14.5 NNE 5 8 1016.1 - 0.0 - - 10 - - - -
29/03:30am 15.0 NW 8 12 1016.1 - 0.0 - - 10 - - - -
29/03:00am 15.0 W 13 17 1015.8 - 0.0 - Mostly cloudy 10 - - - -
29/02:30am 12.9 E 7 8 1015.9 - 0.0 - - 10 - - - -
29/02:00am 13.2 NE 4 6 1016.2 - 0.0 - - 10 - - - -
29/01:30am 14.1 NW 7 14 1016.3 - 0.0 - - 10 - - - -
29/01:00am 13.6 NW 7 9 1016.7 - 0.0 - - 10 - - - -
29/12:30am 12.9 NW 5 7 1017.2 - 0.0 - - 10 - - - -
29/12:00am 14.3 SE 7 12 1017.6 - 0.0 - Mostly cloudy 10 - - - -
 
Date/Time
EST
Temp

°C
Wind Pressure Rain
since 9am
mm
Weather Cloud Vis
km
Sea
Height
m
Swell
Dir
 
Speed
knots
Gust
knots
hPa Trend Height
m
Period
s
Dir
28/11:30pm 11.8 WNW 9 11 1017.6 - 0.0 - - 10 - - - -
28/11:00pm 12.9 W 5 7 1018.1 - 0.0 - - 10 - - - -
28/10:30pm 13.8 W 10 13 1018.1 - 0.0 - - 10 - - - -
28/10:00pm 13.6 ESE 4 5 1018.1 - 0.0 - - 10 - - - -
28/09:30pm 15.1 WNW 11 15 1018.0 - 0.0 - - 10 - - - -

Other Formats:

Comma delimited format used in spreadsheet applications
http://www.bom.gov.au/fwo/IDN60701/IDN60701.95748.axf

JavaScript Object Notation format (JSON) in row-major order
http://www.bom.gov.au/fwo/IDN60701/IDN60701.95748.json